createdAt,value
2018-02-19T00:00:24.726Z,40.07
2018-02-19T00:02:52.186Z,35.13
2018-02-19T00:05:19.639Z,38.73
2018-02-19T00:07:47.102Z,35.10
2018-02-19T00:10:14.573Z,33.53
2018-02-19T00:12:42.036Z,38.47
2018-02-19T00:15:09.490Z,36.97
2018-02-19T00:17:36.947Z,36.77
2018-02-19T00:20:04.418Z,33.53
2018-02-19T00:22:31.869Z,33.83
2018-02-19T00:24:59.339Z,33.60
2018-02-19T00:27:26.794Z,38.40
2018-02-19T00:29:54.239Z,34.67
2018-02-19T00:32:21.718Z,36.60
2018-02-19T00:34:49.164Z,41.07
2018-02-19T00:37:17.386Z,34.37
2018-02-19T00:39:44.830Z,33.20
2018-02-19T00:42:13.063Z,35.17
2018-02-19T00:44:40.536Z,37.17
2018-02-19T00:47:07.986Z,40.47
2018-02-19T00:49:35.439Z,35.47
2018-02-19T00:52:02.897Z,34.40
2018-02-19T00:54:30.359Z,35.97
2018-02-19T00:56:57.810Z,35.77
2018-02-19T00:59:25.291Z,32.87
2018-02-19T01:01:52.744Z,33.83
2018-02-19T01:04:20.203Z,33.87
2018-02-19T01:06:47.647Z,40.57
2018-02-19T01:09:15.112Z,35.83
2018-02-19T01:11:42.571Z,38.07
2018-02-19T01:14:10.038Z,33.97
2018-02-19T01:16:37.491Z,35.50
2018-02-19T01:19:04.950Z,33.87
2018-02-19T01:21:32.409Z,35.50
2018-02-19T01:23:59.870Z,36.27
2018-02-19T01:26:27.317Z,38.63
2018-02-19T01:28:54.765Z,32.50
2018-02-19T01:31:22.999Z,32.70
2018-02-19T01:33:51.210Z,32.87
2018-02-19T01:36:18.679Z,39.40
2018-02-19T01:38:46.111Z,33.60
2018-02-19T01:41:13.568Z,36.40
2018-02-19T01:43:41.032Z,37.00
2018-02-19T01:46:08.535Z,41.43
2018-02-19T01:48:36.761Z,37.87
2018-02-19T01:51:04.222Z,35.97
2018-02-19T01:53:31.682Z,35.57
2018-02-19T01:55:59.141Z,33.13
2018-02-19T01:58:26.590Z,33.53
2018-02-19T02:00:54.045Z,32.70
2018-02-19T02:03:21.502Z,35.17
2018-02-19T02:05:49.728Z,33.67
2018-02-19T02:08:17.188Z,35.23
2018-02-19T02:10:44.641Z,34.87
2018-02-19T02:13:12.094Z,40.10
2018-02-19T02:15:39.529Z,37.63
2018-02-19T02:18:07.763Z,34.43
2018-02-19T02:20:35.219Z,34.77
2018-02-19T02:23:02.698Z,34.33
2018-02-19T02:25:30.256Z,33.07
2018-02-19T02:27:57.710Z,34.90
2018-02-19T02:30:25.191Z,36.83
2018-02-19T02:32:52.643Z,36.50
2018-02-19T02:35:20.100Z,30.80
2018-02-19T02:37:47.597Z,32.43
2018-02-19T02:40:15.064Z,37.50
2018-02-19T02:42:42.514Z,37.50
2018-02-19T02:45:09.958Z,33.17
2018-02-19T02:47:37.418Z,31.43
2018-02-19T02:50:04.856Z,37.03
2018-02-19T02:52:32.324Z,33.93
2018-02-19T02:54:59.767Z,36.80
2018-02-19T02:57:27.238Z,34.80
2018-02-19T02:59:54.715Z,32.37
2018-02-19T03:02:22.171Z,39.43
2018-02-19T03:04:49.669Z,35.30
2018-02-19T03:07:17.148Z,33.63
2018-02-19T03:09:44.586Z,36.10
2018-02-19T03:12:12.042Z,35.27
2018-02-19T03:14:39.508Z,34.13
2018-02-19T03:17:06.963Z,30.17
2018-02-19T03:19:34.407Z,31.83
2018-02-19T03:22:01.871Z,33.23
2018-02-19T03:24:29.334Z,34.40
2018-02-19T03:26:56.790Z,32.53
2018-02-19T03:31:58.137Z,34.47
2018-02-19T03:34:26.375Z,32.13
2018-02-19T03:36:53.828Z,31.87
2018-02-19T03:39:21.294Z,34.67
2018-02-19T03:41:48.748Z,30.37
2018-02-19T03:44:16.211Z,33.43
2018-02-19T03:46:43.666Z,34.50
2018-02-19T03:49:11.122Z,32.47
2018-02-19T03:51:39.350Z,29.67
2018-02-19T03:54:06.813Z,35.43
2018-02-19T03:56:34.259Z,33.07
2018-02-19T03:59:01.740Z,34.93
2018-02-19T04:01:29.178Z,33.07
2018-02-19T04:03:56.637Z,29.30
2018-02-19T04:06:24.077Z,35.50
2018-02-19T04:08:51.542Z,31.63
2018-02-19T04:11:19.000Z,31.87
2018-02-19T04:13:46.470Z,28.37
2018-02-19T04:16:13.951Z,31.60
2018-02-19T04:18:41.413Z,34.23
2018-02-19T04:21:08.857Z,33.10
2018-02-19T04:23:36.302Z,29.00
2018-02-19T04:26:03.759Z,28.07
2018-02-19T04:28:31.996Z,33.30
2018-02-19T04:30:59.439Z,38.70
2018-02-19T04:33:26.903Z,34.37
2018-02-19T04:35:54.356Z,29.70
2018-02-19T04:38:21.813Z,33.87
2018-02-19T04:40:49.262Z,34.37
2018-02-19T04:43:16.701Z,30.60
2018-02-19T04:45:50.648Z,27.27
2018-02-19T04:48:18.091Z,30.20
2018-02-19T04:50:45.538Z,31.37
2018-02-19T04:53:13.751Z,31.40
2018-02-19T04:55:41.212Z,33.37
2018-02-19T04:58:08.655Z,32.90
2018-02-19T05:00:36.899Z,28.17
2018-02-19T05:03:04.392Z,31.80
2018-02-19T05:05:31.815Z,31.17
2018-02-19T05:07:59.279Z,29.77
2018-02-19T05:10:26.745Z,31.10
2018-02-19T05:12:54.191Z,33.10
2018-02-19T05:15:21.649Z,34.33
2018-02-19T05:17:49.874Z,30.90
2018-02-19T05:20:18.090Z,36.17
2018-02-19T05:22:45.551Z,32.27
2018-02-19T05:25:13.006Z,29.77
2018-02-19T05:27:40.468Z,30.60
2018-02-19T05:30:07.930Z,31.70
2018-02-19T05:32:35.376Z,36.00
2018-02-19T05:35:03.632Z,31.63
2018-02-19T05:37:31.086Z,32.27
2018-02-19T05:39:58.544Z,32.70
2018-02-19T05:42:26.015Z,31.60
2018-02-19T05:44:53.479Z,33.37
2018-02-19T05:47:20.938Z,35.87
2018-02-19T05:49:48.387Z,36.33
2018-02-19T05:52:15.846Z,32.47
2018-02-19T05:54:43.303Z,31.43
2018-02-19T05:57:10.753Z,34.07
2018-02-19T05:59:38.229Z,30.90
2018-02-19T06:02:05.710Z,33.73
2018-02-19T06:04:33.949Z,34.23
2018-02-19T06:07:01.396Z,34.30
2018-02-19T06:09:29.616Z,34.37
2018-02-19T06:11:57.083Z,32.50
2018-02-19T06:14:24.523Z,32.17
2018-02-19T06:16:51.975Z,31.63
2018-02-19T06:19:19.438Z,30.73
2018-02-19T06:21:46.871Z,33.53
2018-02-19T06:24:14.325Z,40.90
2018-02-19T06:26:41.789Z,34.97
2018-02-19T06:29:09.266Z,36.97
2018-02-19T06:31:37.488Z,40.20
2018-02-19T06:34:04.958Z,33.83
2018-02-19T06:36:32.410Z,37.37
2018-02-19T06:38:59.872Z,42.17
2018-02-19T06:41:27.330Z,38.87
2018-02-19T06:43:54.795Z,36.23
2018-02-19T06:46:22.241Z,35.00
2018-02-19T06:48:49.823Z,38.73
2018-02-19T06:51:17.272Z,42.30
2018-02-19T06:53:44.722Z,35.43
2018-02-19T06:56:12.946Z,37.27
2018-02-19T06:58:40.427Z,41.77
2018-02-19T07:01:07.916Z,43.60
2018-02-19T07:03:35.406Z,41.37
2018-02-19T07:06:02.859Z,38.17
2018-02-19T07:08:31.074Z,38.53
2018-02-19T07:10:59.296Z,37.30
2018-02-19T07:13:26.741Z,39.57
2018-02-19T07:15:54.170Z,38.83
2018-02-19T07:18:21.609Z,39.53
2018-02-19T07:20:49.076Z,37.27
2018-02-19T07:23:16.547Z,42.77
2018-02-19T07:25:43.991Z,44.43
2018-02-19T07:28:12.197Z,40.47
2018-02-19T07:30:39.674Z,46.30
2018-02-19T07:33:07.140Z,42.73
2018-02-19T07:35:34.614Z,41.93
2018-02-19T07:38:02.067Z,41.10
2018-02-19T07:40:29.522Z,43.37
2018-02-19T07:42:56.970Z,45.77
2018-02-19T07:45:24.432Z,39.67
2018-02-19T07:47:51.877Z,44.53
2018-02-19T07:50:19.406Z,36.67
2018-02-19T07:52:46.788Z,44.57
2018-02-19T07:55:14.998Z,42.93
2018-02-19T07:57:42.480Z,42.07
2018-02-19T08:00:09.923Z,41.30
2018-02-19T08:02:37.371Z,42.17
2018-02-19T08:05:04.846Z,35.30
2018-02-19T08:07:32.290Z,42.53
2018-02-19T08:10:00.540Z,43.23
2018-02-19T08:12:28.089Z,39.83
2018-02-19T08:14:56.244Z,46.35
2018-02-19T08:17:23.704Z,39.00
2018-02-19T08:19:51.158Z,45.90
2018-02-19T08:22:18.616Z,47.93
2018-02-19T08:24:46.069Z,46.03
2018-02-19T08:27:14.293Z,52.93
2018-02-19T08:29:41.800Z,43.93
2018-02-19T08:32:09.209Z,37.63
2018-02-19T08:34:37.514Z,42.43
2018-02-19T08:37:05.961Z,42.27
2018-02-19T08:39:33.409Z,45.77
2018-02-19T08:42:00.863Z,46.67
2018-02-19T08:44:29.107Z,47.40
2018-02-19T08:46:56.545Z,45.63
2018-02-19T08:49:24.002Z,44.33
2018-02-19T08:51:51.467Z,45.93
2018-02-19T08:54:18.928Z,40.57
2018-02-19T08:56:46.394Z,46.53
2018-02-19T08:59:13.857Z,42.40
2018-02-19T09:01:41.335Z,39.77
2018-02-19T09:04:08.769Z,41.03
2018-02-19T09:06:36.227Z,42.63
2018-02-19T09:09:03.696Z,46.90
2018-02-19T09:11:31.139Z,45.13
2018-02-19T09:13:59.356Z,46.17
2018-02-19T09:16:26.815Z,44.17
2018-02-19T09:18:54.364Z,41.47
2018-02-19T09:21:21.827Z,44.83
2018-02-19T09:23:49.267Z,42.03
2018-02-19T09:26:16.722Z,49.90
2018-02-19T09:28:44.944Z,45.30
2018-02-19T09:31:12.394Z,44.67
2018-02-19T09:33:39.866Z,46.57
2018-02-19T09:36:07.320Z,44.43
2018-02-19T09:38:34.773Z,47.67
2018-02-19T09:41:02.229Z,46.17
2018-02-19T09:46:08.348Z,41.47
2018-02-19T09:48:35.804Z,39.73
2018-02-19T09:51:03.264Z,46.50
2018-02-19T09:53:30.723Z,44.47
2018-02-19T09:55:58.172Z,43.90
2018-02-19T09:58:25.636Z,48.17
2018-02-19T10:00:53.079Z,45.07
2018-02-19T10:03:21.294Z,45.33
2018-02-19T10:05:48.747Z,42.77
2018-02-19T10:08:16.195Z,43.40
2018-02-19T10:10:43.653Z,51.83
2018-02-19T10:13:11.091Z,48.83
2018-02-19T10:15:39.319Z,45.43
2018-02-19T10:18:06.784Z,45.17
2018-02-19T10:20:34.246Z,43.43
2018-02-19T10:23:01.693Z,43.77
2018-02-19T10:25:29.174Z,45.73
2018-02-19T10:27:56.616Z,50.73
2018-02-19T10:30:24.093Z,43.20
2018-02-19T10:32:52.265Z,44.33
2018-02-19T10:35:19.760Z,50.20
2018-02-19T10:37:47.195Z,45.50
2018-02-19T10:40:14.662Z,44.37
2018-02-19T10:42:42.124Z,43.63
2018-02-19T10:45:09.608Z,48.93
2018-02-19T10:47:37.071Z,46.43
2018-02-19T10:50:04.540Z,47.10
2018-02-19T10:52:31.985Z,43.00
2018-02-19T10:54:59.434Z,50.63
2018-02-19T10:57:26.894Z,43.60
2018-02-19T10:59:54.352Z,41.70
2018-02-19T11:02:21.820Z,45.00
2018-02-19T11:04:49.270Z,46.47
2018-02-19T11:07:16.717Z,43.50
2018-02-19T11:09:44.946Z,45.17
2018-02-19T11:12:12.380Z,43.40
2018-02-19T11:14:39.847Z,43.37
2018-02-19T11:17:07.274Z,45.20
2018-02-19T11:19:35.490Z,44.77
2018-02-19T11:22:02.971Z,44.83
2018-02-19T11:24:30.547Z,47.50
2018-02-19T11:26:58.007Z,40.87
2018-02-19T11:29:25.464Z,42.17
2018-02-19T11:31:52.946Z,46.70
2018-02-19T11:34:20.407Z,47.10
2018-02-19T11:36:47.863Z,48.73
2018-02-19T11:39:15.376Z,46.67
2018-02-19T11:41:42.775Z,43.23
2018-02-19T11:44:10.232Z,46.37
2018-02-19T11:46:37.692Z,50.07
2018-02-19T11:49:05.173Z,42.43
2018-02-19T11:51:32.647Z,45.63
2018-02-19T11:54:00.079Z,49.80
2018-02-19T11:56:27.527Z,44.07
2018-02-19T11:58:55.004Z,47.33
2018-02-19T12:01:22.454Z,44.73
2018-02-19T12:03:49.908Z,44.87
2018-02-19T12:06:17.360Z,45.73
2018-02-19T12:08:45.644Z,43.60
2018-02-19T12:11:13.162Z,44.60
2018-02-19T12:13:40.627Z,42.33
2018-02-19T12:16:08.065Z,44.43
2018-02-19T12:18:35.526Z,46.67
2018-02-19T12:21:02.969Z,43.03
2018-02-19T12:23:30.451Z,46.57
2018-02-19T12:25:57.912Z,44.07
2018-02-19T12:28:25.354Z,46.07
2018-02-19T12:30:52.875Z,47.73
2018-02-19T12:33:20.318Z,46.83
2018-02-19T12:35:47.785Z,42.43
2018-02-19T12:38:15.225Z,45.17
2018-02-19T12:40:45.758Z,43.03
2018-02-19T12:43:13.186Z,46.80
2018-02-19T12:45:41.438Z,46.43
2018-02-19T12:48:08.933Z,50.90
2018-02-19T12:50:37.176Z,47.37
2018-02-19T12:53:04.639Z,49.13
2018-02-19T12:55:32.111Z,48.20
2018-02-19T12:57:59.591Z,44.77
2018-02-19T13:00:27.829Z,44.03
2018-02-19T13:02:55.285Z,47.37
2018-02-19T13:05:22.726Z,42.13
2018-02-19T13:07:50.185Z,42.23
2018-02-19T13:10:17.628Z,46.30
2018-02-19T13:12:45.864Z,42.00
2018-02-19T13:15:13.319Z,46.13
2018-02-19T13:17:40.788Z,50.93
2018-02-19T13:20:08.242Z,45.97
2018-02-19T13:22:35.798Z,45.53
2018-02-19T13:25:03.253Z,43.47
2018-02-19T13:27:30.695Z,46.47
2018-02-19T13:29:58.158Z,43.93
2018-02-19T13:32:26.399Z,45.37
2018-02-19T13:34:53.893Z,48.43
2018-02-19T13:37:22.116Z,42.67
2018-02-19T13:39:49.565Z,47.77
2018-02-19T13:42:17.006Z,47.00
2018-02-19T13:44:45.236Z,40.30
2018-02-19T13:47:12.678Z,45.77
2018-02-19T13:49:40.132Z,43.60
2018-02-19T13:52:08.351Z,43.20
2018-02-19T13:54:35.808Z,42.23
2018-02-19T13:57:03.285Z,46.20
2018-02-19T13:59:31.556Z,41.77
2018-02-19T14:01:58.993Z,42.13
2018-02-19T14:04:26.444Z,44.10
2018-02-19T14:06:53.896Z,44.70
2018-02-19T14:09:21.348Z,38.53
2018-02-19T14:11:49.577Z,42.23
2018-02-19T14:14:17.034Z,41.67
2018-02-19T14:16:45.263Z,45.20
2018-02-19T14:19:13.469Z,41.37
2018-02-19T14:21:40.941Z,40.17
2018-02-19T14:24:08.404Z,39.90
2018-02-19T14:26:35.855Z,42.80
2018-02-19T14:29:03.342Z,40.57
2018-02-19T14:31:30.804Z,40.97
2018-02-19T14:33:58.265Z,41.53
2018-02-19T14:36:25.723Z,38.73
2018-02-19T14:38:53.203Z,38.97
2018-02-19T14:41:20.653Z,39.83
2018-02-19T14:43:48.104Z,40.83
2018-02-19T14:46:15.558Z,39.47
2018-02-19T14:48:43.045Z,37.40
2018-02-19T14:51:10.500Z,39.57
2018-02-19T14:53:37.970Z,40.30
2018-02-19T14:56:06.195Z,39.03
2018-02-19T14:58:34.407Z,37.20
2018-02-19T15:01:01.892Z,43.87
2018-02-19T15:03:29.330Z,42.17
2018-02-19T15:05:56.777Z,37.17
2018-02-19T15:08:24.258Z,41.43
2018-02-19T15:10:51.706Z,41.40
2018-02-19T15:13:19.184Z,43.70
2018-02-19T15:15:46.672Z,40.33
2018-02-19T15:18:14.141Z,40.33
2018-02-19T15:20:42.401Z,37.70
2018-02-19T15:23:09.868Z,38.33
2018-02-19T15:25:37.318Z,44.33
2018-02-19T15:28:04.784Z,41.03
2018-02-19T15:30:32.249Z,40.13
2018-02-19T15:32:59.713Z,45.43
2018-02-19T15:35:27.191Z,41.60
2018-02-19T15:37:54.641Z,38.33
2018-02-19T15:40:22.103Z,38.17
2018-02-19T15:42:49.573Z,39.27
2018-02-19T15:45:17.034Z,41.27
2018-02-19T15:47:44.491Z,44.57
2018-02-19T15:50:11.943Z,40.07
2018-02-19T15:52:39.408Z,40.17
2018-02-19T15:55:06.849Z,38.57
2018-02-19T15:57:34.315Z,42.10
2018-02-19T16:00:01.780Z,41.63
2018-02-19T16:02:29.237Z,40.60
2018-02-19T16:04:57.459Z,39.37
2018-02-19T16:07:24.910Z,42.50
2018-02-19T16:09:52.372Z,39.63
2018-02-19T16:12:19.822Z,41.27
2018-02-19T16:14:47.296Z,41.97
2018-02-19T16:17:14.751Z,41.60
2018-02-19T16:19:42.194Z,41.13
2018-02-19T16:22:10.427Z,39.77
2018-02-19T16:24:37.879Z,40.03
2018-02-19T16:27:05.335Z,40.37
2018-02-19T16:29:32.798Z,40.10
2018-02-19T16:32:00.282Z,40.00
2018-02-19T16:34:27.755Z,39.17
2018-02-19T16:36:55.195Z,42.90
2018-02-19T16:39:22.667Z,35.90
2018-02-19T16:41:50.114Z,38.63
2018-02-19T16:44:17.574Z,37.93
2018-02-19T16:46:45.070Z,34.93
2018-02-19T16:49:12.540Z,38.23
2018-02-19T16:51:40.005Z,40.87
2018-02-19T16:54:07.487Z,36.47
2018-02-19T16:56:35.702Z,44.07
2018-02-19T16:59:03.163Z,40.57
2018-02-19T17:01:30.641Z,42.23
2018-02-19T17:03:58.115Z,37.97
2018-02-19T17:06:26.379Z,36.50
2018-02-19T17:08:53.835Z,51.60
2018-02-19T17:11:21.276Z,39.17
2018-02-19T17:13:48.722Z,41.90
2018-02-19T17:16:16.931Z,39.67
2018-02-19T17:18:44.401Z,40.87
2018-02-19T17:21:12.631Z,41.97
2018-02-19T17:23:40.093Z,38.90
2018-02-19T17:26:07.559Z,39.77
2018-02-19T17:28:34.995Z,42.37
2018-02-19T17:31:02.477Z,39.63
2018-02-19T17:33:29.897Z,43.57
2018-02-19T17:35:57.352Z,38.10
2018-02-19T17:38:24.830Z,40.63
2018-02-19T17:40:52.278Z,43.07
2018-02-19T17:43:19.748Z,38.70
2018-02-19T17:45:47.199Z,39.20
2018-02-19T17:48:14.646Z,39.80
2018-02-19T17:50:42.120Z,42.73
2018-02-19T17:53:09.588Z,42.70
2018-02-19T17:55:37.058Z,43.77
2018-02-19T17:58:04.540Z,35.80
2018-02-19T18:00:31.978Z,42.20
2018-02-19T18:02:59.498Z,47.87
2018-02-19T18:05:26.935Z,42.47
2018-02-19T18:07:54.382Z,44.60
2018-02-19T18:10:21.855Z,42.27
2018-02-19T18:12:49.329Z,42.83
2018-02-19T18:15:16.790Z,34.90
2018-02-19T18:17:44.251Z,46.23
2018-02-19T18:20:11.711Z,44.30
2018-02-19T18:22:39.166Z,40.50
2018-02-19T18:25:06.624Z,43.87
2018-02-19T18:27:34.099Z,37.30
2018-02-19T18:30:01.581Z,39.47
2018-02-19T18:32:29.055Z,44.13
2018-02-19T18:34:57.258Z,41.53
2018-02-19T18:37:24.763Z,44.10
2018-02-19T18:39:52.233Z,41.77
2018-02-19T18:42:19.745Z,40.07
2018-02-19T18:44:47.238Z,39.90
2018-02-19T18:47:14.908Z,41.43
2018-02-19T18:49:42.426Z,39.80
2018-02-19T18:52:10.662Z,39.70
2018-02-19T18:54:38.142Z,37.07
2018-02-19T18:57:05.636Z,45.43
2018-02-19T18:59:33.861Z,47.90
2018-02-19T19:02:02.172Z,43.40
2018-02-19T19:04:29.645Z,38.93
2018-02-19T19:06:57.112Z,42.53
2018-02-19T19:09:36.566Z,38.97
2018-02-19T19:12:04.037Z,38.50
2018-02-19T19:14:31.516Z,40.53
2018-02-19T19:16:58.995Z,40.87
2018-02-19T19:19:26.489Z,40.80
2018-02-19T19:21:53.945Z,39.67
2018-02-19T19:24:21.398Z,43.50
2018-02-19T19:26:48.910Z,39.63
2018-02-19T19:29:16.371Z,42.23
2018-02-19T19:31:44.606Z,38.20
2018-02-19T19:34:12.116Z,36.97
2018-02-19T19:36:40.392Z,39.63
2018-02-19T19:39:08.607Z,37.93
2018-02-19T19:41:36.090Z,38.83
2018-02-19T19:44:03.595Z,40.40
2018-02-19T19:46:31.866Z,38.83
2018-02-19T19:49:00.119Z,35.20
2018-02-19T19:51:27.593Z,40.93
2018-02-19T19:53:55.067Z,34.80
2018-02-19T19:56:22.586Z,42.10
2018-02-19T19:58:50.092Z,35.33
2018-02-19T20:01:17.610Z,39.70
2018-02-19T20:03:45.104Z,39.77
2018-02-19T20:06:12.564Z,40.43
2018-02-19T20:08:40.039Z,38.80
2018-02-19T20:11:07.510Z,37.00
2018-02-19T20:13:35.006Z,35.13
2018-02-19T20:16:02.524Z,33.10
2018-02-19T20:18:30.001Z,37.10
2018-02-19T20:20:57.469Z,41.47
2018-02-19T20:23:24.923Z,32.40
2018-02-19T20:25:52.403Z,38.73
2018-02-19T20:28:19.872Z,38.33
2018-02-19T20:30:48.120Z,41.80
2018-02-19T20:33:15.591Z,42.43
2018-02-19T20:35:43.042Z,35.97
2018-02-19T20:38:10.473Z,43.57
2018-02-19T20:40:37.978Z,39.37
2018-02-19T20:43:05.430Z,40.70
2018-02-19T20:45:32.918Z,38.70
2018-02-19T20:48:01.174Z,42.90
2018-02-19T20:50:28.642Z,40.13
2018-02-19T20:52:56.112Z,36.20
2018-02-19T20:55:23.564Z,34.00
2018-02-19T20:57:51.025Z,40.13
2018-02-19T21:00:19.235Z,41.33
2018-02-19T21:02:47.477Z,40.70
2018-02-19T21:05:14.935Z,35.80
2018-02-19T21:07:43.142Z,36.60
2018-02-19T21:10:10.580Z,39.03
2018-02-19T21:12:38.035Z,39.57
2018-02-19T21:15:05.521Z,43.83
2018-02-19T21:17:32.963Z,34.97
2018-02-19T21:20:00.465Z,40.77
2018-02-19T21:22:27.950Z,34.47
2018-02-19T21:24:55.400Z,37.03
2018-02-19T21:27:23.647Z,45.93
2018-02-19T21:29:51.104Z,41.97
2018-02-19T21:32:18.564Z,44.73
2018-02-19T21:34:46.046Z,40.60
2018-02-19T21:37:13.505Z,43.20
2018-02-19T21:39:40.972Z,38.43
2018-02-19T21:42:09.147Z,42.90
2018-02-19T21:44:36.619Z,38.27
2018-02-19T21:47:04.064Z,44.33
2018-02-19T21:49:31.523Z,40.30
2018-02-19T21:51:59.002Z,40.07
2018-02-19T21:54:26.459Z,40.47
2018-02-19T21:56:53.904Z,40.47
2018-02-19T21:59:21.492Z,40.93
2018-02-19T22:01:49.740Z,41.30
2018-02-19T22:04:17.187Z,34.90
2018-02-19T22:06:44.656Z,39.27
2018-02-19T22:09:12.088Z,38.97
2018-02-19T22:11:40.361Z,44.17
2018-02-19T22:14:08.582Z,37.97
2018-02-19T22:16:36.045Z,38.93
2018-02-19T22:19:03.499Z,37.70
2018-02-19T22:21:30.964Z,40.87
2018-02-19T22:23:58.421Z,40.57
2018-02-19T22:26:25.897Z,41.07
2018-02-19T22:28:53.351Z,39.90
2018-02-19T22:31:20.815Z,39.23
2018-02-19T22:33:48.261Z,37.47
2018-02-19T22:36:15.742Z,39.87
2018-02-19T22:38:43.204Z,44.20
2018-02-19T22:41:10.651Z,39.63
2018-02-19T22:43:38.107Z,39.57
2018-02-19T22:46:06.327Z,40.17
2018-02-19T22:48:33.789Z,40.17
2018-02-19T22:51:01.258Z,39.40
2018-02-19T22:53:28.716Z,34.57
2018-02-19T22:55:56.171Z,39.20
2018-02-19T22:58:23.629Z,41.87
2018-02-19T23:00:51.137Z,38.90
2018-02-19T23:03:18.596Z,31.27
2018-02-19T23:05:46.021Z,32.60
2018-02-19T23:08:13.486Z,40.73
2018-02-19T23:10:40.947Z,38.83
2018-02-19T23:13:08.411Z,39.03
2018-02-19T23:15:35.859Z,35.23
2018-02-19T23:18:03.307Z,34.97
2018-02-19T23:20:30.754Z,33.43
2018-02-19T23:22:59.004Z,37.80
2018-02-19T23:25:26.452Z,38.73
2018-02-19T23:27:53.941Z,36.77
2018-02-19T23:30:21.420Z,35.40
2018-02-19T23:32:49.676Z,33.60
2018-02-19T23:35:17.103Z,34.53
2018-02-19T23:37:44.582Z,38.17
2018-02-19T23:40:12.028Z,36.30
2018-02-19T23:42:39.478Z,34.70
2018-02-19T23:45:06.930Z,38.37
2018-02-19T23:47:34.367Z,36.43
2018-02-19T23:50:01.830Z,38.20
2018-02-19T23:52:29.276Z,32.03
2018-02-19T23:54:56.738Z,41.07
2018-02-19T23:57:24.186Z,33.77
2018-02-19T23:59:51.635Z,34.03
